sensor_id;sensor_type;location;lat;lon;timestamp;temperature;humidity
31725;DHT22;18306;40.960;14.836;2022-10-16T09:59:15;19.20;99.90
31725;DHT22;18306;40.960;14.836;2022-10-16T10:01:48;19.40;99.90
31725;DHT22;18306;40.960;14.836;2022-10-16T10:04:22;19.40;99.90
31725;DHT22;18306;40.960;14.836;2022-10-16T10:06:55;19.40;99.90
31725;DHT22;18306;40.960;14.836;2022-10-16T10:09:27;19.50;99.90
31725;DHT22;18306;40.960;14.836;2022-10-16T10:12:04;19.60;99.90
31725;DHT22;18306;40.960;14.836;2022-10-16T10:14:51;19.70;99.90
31725;DHT22;18306;40.960;14.836;2022-10-16T10:17:21;19.80;99.90
31725;DHT22;18306;40.960;14.836;2022-10-16T10:19:52;19.90;99.90
31725;DHT22;18306;40.960;14.836;2022-10-16T10:22:25;20.00;99.90
31725;DHT22;18306;40.960;14.836;2022-10-16T10:27:58;20.10;99.90
31725;DHT22;18306;40.960;14.836;2022-10-16T10:33:41;20.10;99.90
31725;DHT22;18306;40.960;14.836;2022-10-16T10:41:38;20.80;99.90
31725;DHT22;18306;40.960;14.836;2022-10-16T10:58:55;20.80;99.90
31725;DHT22;18306;40.960;14.836;2022-10-16T11:01:50;20.80;99.90
31725;DHT22;18306;40.960;14.836;2022-10-16T11:07:27;20.50;99.90
31725;DHT22;18306;40.960;14.836;2022-10-16T11:10:13;21.00;99.90
31725;DHT22;18306;40.960;14.836;2022-10-16T11:12:49;21.10;99.90
31725;DHT22;18306;40.960;14.836;2022-10-16T11:15:23;21.00;99.90
31725;DHT22;18306;40.960;14.836;2022-10-16T11:18:15;21.10;99.90
31725;DHT22;18306;40.960;14.836;2022-10-16T11:21:05;21.10;99.90
31725;DHT22;18306;40.960;14.836;2022-10-16T11:26:27;21.00;99.90
31725;DHT22;18306;40.960;14.836;2022-10-16T11:28:56;21.10;99.90
31725;DHT22;18306;40.960;14.836;2022-10-16T11:31:36;21.30;99.90
31725;DHT22;18306;40.960;14.836;2022-10-16T11:37:05;21.50;99.90
31725;DHT22;18306;40.960;14.836;2022-10-16T11:39:34;21.30;99.90
31725;DHT22;18306;40.960;14.836;2022-10-16T11:45:17;21.30;99.90
31725;DHT22;18306;40.960;14.836;2022-10-16T11:50:57;21.40;99.90
31725;DHT22;18306;40.960;14.836;2022-10-16T11:53:42;21.40;99.90
31725;DHT22;18306;40.960;14.836;2022-10-16T11:56:21;21.50;99.90
31725;DHT22;18306;40.960;14.836;2022-10-16T11:59:18;21.70;99.90
31725;DHT22;18306;40.960;14.836;2022-10-16T12:01:51;21.70;99.90
31725;DHT22;18306;40.960;14.836;2022-10-16T12:08:19;21.60;99.90
31725;DHT22;18306;40.960;14.836;2022-10-16T12:10:48;21.90;99.90
31725;DHT22;18306;40.960;14.836;2022-10-16T12:13:36;22.00;99.90
31725;DHT22;18306;40.960;14.836;2022-10-16T12:16:19;21.90;99.90
31725;DHT22;18306;40.960;14.836;2022-10-16T12:18:47;22.00;99.90
31725;DHT22;18306;40.960;14.836;2022-10-16T12:21:16;21.70;99.90
31725;DHT22;18306;40.960;14.836;2022-10-16T12:23:55;21.70;99.90
31725;DHT22;18306;40.960;14.836;2022-10-16T12:26:32;21.90;99.90
31725;DHT22;18306;40.960;14.836;2022-10-16T12:29:35;21.80;99.90
31725;DHT22;18306;40.960;14.836;2022-10-16T12:32:06;21.60;99.90
31725;DHT22;18306;40.960;14.836;2022-10-16T12:34:47;21.80;99.90
31725;DHT22;18306;40.960;14.836;2022-10-16T12:39:52;21.80;99.90
31725;DHT22;18306;40.960;14.836;2022-10-16T12:45:00;21.80;99.90
31725;DHT22;18306;40.960;14.836;2022-10-16T12:50:00;21.90;99.90
31725;DHT22;18306;40.960;14.836;2022-10-16T12:55:02;22.10;99.90
31725;DHT22;18306;40.960;14.836;2022-10-16T13:00:45;21.80;99.90
31725;DHT22;18306;40.960;14.836;2022-10-16T13:12:40;22.20;99.90
31725;DHT22;18306;40.960;14.836;2022-10-16T13:21:25;21.80;99.90
31725;DHT22;18306;40.960;14.836;2022-10-16T13:29:30;21.80;99.90
31725;DHT22;18306;40.960;14.836;2022-10-16T13:32:00;21.70;99.90
31725;DHT22;18306;40.960;14.836;2022-10-16T13:34:29;21.50;99.90
31725;DHT22;18306;40.960;14.836;2022-10-16T13:36:56;21.30;99.90
31725;DHT22;18306;40.960;14.836;2022-10-16T13:39:28;21.00;99.90
31725;DHT22;18306;40.960;14.836;2022-10-16T13:42:03;21.10;99.90
31725;DHT22;18306;40.960;14.836;2022-10-16T13:44:39;20.70;99.90
31725;DHT22;18306;40.960;14.836;2022-10-16T13:47:26;20.80;99.90
31725;DHT22;18306;40.960;14.836;2022-10-16T13:52:33;21.10;99.90
31725;DHT22;18306;40.960;14.836;2022-10-16T13:55:00;21.20;99.90
31725;DHT22;18306;40.960;14.836;2022-10-16T13:57:28;21.30;99.90
31725;DHT22;18306;40.960;14.836;2022-10-16T13:59:55;21.60;99.90
31725;DHT22;18306;40.960;14.836;2022-10-16T14:02:35;21.40;99.90
31725;DHT22;18306;40.960;14.836;2022-10-16T14:05:08;21.00;99.90
31725;DHT22;18306;40.960;14.836;2022-10-16T14:07:37;21.10;99.90
31725;DHT22;18306;40.960;14.836;2022-10-16T14:10:24;21.20;99.90
31725;DHT22;18306;40.960;14.836;2022-10-16T14:13:03;21.20;99.90
31725;DHT22;18306;40.960;14.836;2022-10-16T14:15:39;21.10;99.90
31725;DHT22;18306;40.960;14.836;2022-10-16T14:18:06;21.10;99.90
31725;DHT22;18306;40.960;14.836;2022-10-16T14:20:35;21.00;99.90
31725;DHT22;18306;40.960;14.836;2022-10-16T14:23:23;21.00;99.90
31725;DHT22;18306;40.960;14.836;2022-10-16T14:28:39;21.00;99.90
31725;DHT22;18306;40.960;14.836;2022-10-16T14:39:29;21.00;99.90
31725;DHT22;18306;40.960;14.836;2022-10-16T14:42:02;21.00;99.90
31725;DHT22;18306;40.960;14.836;2022-10-16T14:44:33;21.00;99.90
31725;DHT22;18306;40.960;14.836;2022-10-16T14:47:13;20.90;99.90
31725;DHT22;18306;40.960;14.836;2022-10-16T14:49:42;20.90;99.90
31725;DHT22;18306;40.960;14.836;2022-10-16T14:52:12;21.00;99.90
31725;DHT22;18306;40.960;14.836;2022-10-16T14:54:40;20.80;99.90
31725;DHT22;18306;40.960;14.836;2022-10-16T14:57:40;20.60;99.90
31725;DHT22;18306;40.960;14.836;2022-10-16T15:00:17;20.60;99.90
31725;DHT22;18306;40.960;14.836;2022-10-16T15:02:45;20.60;99.90
31725;DHT22;18306;40.960;14.836;2022-10-16T15:05:26;20.50;99.90
31725;DHT22;18306;40.960;14.836;2022-10-16T15:07:54;20.50;99.90
31725;DHT22;18306;40.960;14.836;2022-10-16T15:10:23;20.60;99.90
31725;DHT22;18306;40.960;14.836;2022-10-16T15:12:52;20.40;99.90
31725;DHT22;18306;40.960;14.836;2022-10-16T15:17:51;20.30;99.90
31725;DHT22;18306;40.960;14.836;2022-10-16T15:20:20;20.20;99.90
31725;DHT22;18306;40.960;14.836;2022-10-16T15:23:04;20.20;99.90
31725;DHT22;18306;40.960;14.836;2022-10-16T15:25:38;20.20;99.90
31725;DHT22;18306;40.960;14.836;2022-10-16T15:28:07;20.10;99.90
31725;DHT22;18306;40.960;14.836;2022-10-16T15:30:40;20.20;99.90
31725;DHT22;18306;40.960;14.836;2022-10-16T15:33:24;20.10;99.90
31725;DHT22;18306;40.960;14.836;2022-10-16T15:35:56;20.00;99.90
31725;DHT22;18306;40.960;14.836;2022-10-16T15:38:28;20.00;99.90
31725;DHT22;18306;40.960;14.836;2022-10-16T15:40:56;19.90;99.90
31725;DHT22;18306;40.960;14.836;2022-10-16T15:43:24;19.90;99.90
31725;DHT22;18306;40.960;14.836;2022-10-16T15:46:19;19.60;99.90
31725;DHT22;18306;40.960;14.836;2022-10-16T15:48:57;19.30;99.90
31725;DHT22;18306;40.960;14.836;2022-10-16T15:51:26;19.20;99.90
31725;DHT22;18306;40.960;14.836;2022-10-16T15:54:01;19.10;99.90
31725;DHT22;18306;40.960;14.836;2022-10-16T15:56:36;18.90;99.90
31725;DHT22;18306;40.960;14.836;2022-10-16T15:59:08;18.70;99.90
31725;DHT22;18306;40.960;14.836;2022-10-16T16:06:07;18.50;99.90
31725;DHT22;18306;40.960;14.836;2022-10-16T16:08:35;18.40;99.90
31725;DHT22;18306;40.960;14.836;2022-10-16T16:11:12;18.20;99.90
31725;DHT22;18306;40.960;14.836;2022-10-16T16:13:40;18.10;99.90
31725;DHT22;18306;40.960;14.836;2022-10-16T16:16:10;17.90;99.90
31725;DHT22;18306;40.960;14.836;2022-10-16T16:18:39;17.80;99.90
31725;DHT22;18306;40.960;14.836;2022-10-16T16:21:07;17.70;99.90
31725;DHT22;18306;40.960;14.836;2022-10-16T16:23:34;17.60;99.90
31725;DHT22;18306;40.960;14.836;2022-10-16T16:30:44;17.40;99.90
31725;DHT22;18306;40.960;14.836;2022-10-16T16:33:11;17.20;99.90
31725;DHT22;18306;40.960;14.836;2022-10-16T16:35:38;17.10;99.90
31725;DHT22;18306;40.960;14.836;2022-10-16T16:38:06;17.00;99.90
31725;DHT22;18306;40.960;14.836;2022-10-16T16:40:33;17.10;99.90
31725;DHT22;18306;40.960;14.836;2022-10-16T16:43:02;17.00;99.90
31725;DHT22;18306;40.960;14.836;2022-10-16T16:45:35;16.90;99.90
31725;DHT22;18306;40.960;14.836;2022-10-16T16:48:08;16.80;99.90
31725;DHT22;18306;40.960;14.836;2022-10-16T16:50:41;16.70;99.90
31725;DHT22;18306;40.960;14.836;2022-10-16T16:53:10;16.60;99.90
31725;DHT22;18306;40.960;14.836;2022-10-16T16:55:43;16.60;99.90
31725;DHT22;18306;40.960;14.836;2022-10-16T16:58:15;16.50;99.90
31725;DHT22;18306;40.960;14.836;2022-10-16T17:00:47;16.50;99.90
31725;DHT22;18306;40.960;14.836;2022-10-16T17:03:19;16.40;99.90
31725;DHT22;18306;40.960;14.836;2022-10-16T17:09:42;16.30;99.90
31725;DHT22;18306;40.960;14.836;2022-10-16T17:12:34;16.20;99.90
31725;DHT22;18306;40.960;14.836;2022-10-16T17:15:08;16.20;99.90
31725;DHT22;18306;40.960;14.836;2022-10-16T17:17:54;16.10;99.90
31725;DHT22;18306;40.960;14.836;2022-10-16T17:20:36;16.30;99.90
31725;DHT22;18306;40.960;14.836;2022-10-16T17:23:13;16.10;99.90
31725;DHT22;18306;40.960;14.836;2022-10-16T17:25:53;16.00;99.90
31725;DHT22;18306;40.960;14.836;2022-10-16T17:28:26;16.00;99.90
31725;DHT22;18306;40.960;14.836;2022-10-16T17:31:15;15.90;99.90
31725;DHT22;18306;40.960;14.836;2022-10-16T17:33:53;16.00;99.90
31725;DHT22;18306;40.960;14.836;2022-10-16T17:36:39;15.90;99.90
31725;DHT22;18306;40.960;14.836;2022-10-16T17:39:21;15.90;99.90
31725;DHT22;18306;40.960;14.836;2022-10-16T17:41:59;15.80;99.90
31725;DHT22;18306;40.960;14.836;2022-10-16T17:44:31;15.70;99.90
31725;DHT22;18306;40.960;14.836;2022-10-16T17:47:00;15.60;99.90
31725;DHT22;18306;40.960;14.836;2022-10-16T17:49:39;15.50;99.90
31725;DHT22;18306;40.960;14.836;2022-10-16T17:52:10;15.40;99.90
31725;DHT22;18306;40.960;14.836;2022-10-16T17:54:38;15.40;99.90
31725;DHT22;18306;40.960;14.836;2022-10-16T17:57:06;15.40;99.90
31725;DHT22;18306;40.960;14.836;2022-10-16T17:59:34;15.30;99.90
31725;DHT22;18306;40.960;14.836;2022-10-16T18:02:01;15.30;99.90
31725;DHT22;18306;40.960;14.836;2022-10-16T18:04:28;15.30;99.90
31725;DHT22;18306;40.960;14.836;2022-10-16T18:06:56;15.30;99.90
31725;DHT22;18306;40.960;14.836;2022-10-16T18:09:24;15.30;99.90
31725;DHT22;18306;40.960;14.836;2022-10-16T18:11:57;15.30;99.90
31725;DHT22;18306;40.960;14.836;2022-10-16T18:14:30;15.30;99.90
31725;DHT22;18306;40.960;14.836;2022-10-16T18:16:58;15.20;99.90
31725;DHT22;18306;40.960;14.836;2022-10-16T18:19:26;15.20;99.90
31725;DHT22;18306;40.960;14.836;2022-10-16T18:21:53;15.20;99.90
31725;DHT22;18306;40.960;14.836;2022-10-16T18:24:25;15.20;99.90
31725;DHT22;18306;40.960;14.836;2022-10-16T18:26:54;15.10;99.90
31725;DHT22;18306;40.960;14.836;2022-10-16T18:29:26;15.00;99.90
31725;DHT22;18306;40.960;14.836;2022-10-16T18:31:58;15.20;99.90
31725;DHT22;18306;40.960;14.836;2022-10-16T18:34:25;15.00;99.90
31725;DHT22;18306;40.960;14.836;2022-10-16T18:36:54;15.00;99.90
31725;DHT22;18306;40.960;14.836;2022-10-16T18:43:55;14.90;99.90
31725;DHT22;18306;40.960;14.836;2022-10-16T18:46:24;14.80;99.90
31725;DHT22;18306;40.960;14.836;2022-10-16T18:48:54;14.90;99.90
31725;DHT22;18306;40.960;14.836;2022-10-16T18:51:32;14.80;99.90
31725;DHT22;18306;40.960;14.836;2022-10-16T18:54:05;14.60;99.90
31725;DHT22;18306;40.960;14.836;2022-10-16T18:56:38;14.60;99.90
31725;DHT22;18306;40.960;14.836;2022-10-16T18:59:19;14.50;99.90
31725;DHT22;18306;40.960;14.836;2022-10-16T19:01:51;14.60;99.90
31725;DHT22;18306;40.960;14.836;2022-10-16T19:04:36;14.50;99.90
31725;DHT22;18306;40.960;14.836;2022-10-16T19:07:08;14.50;99.90
31725;DHT22;18306;40.960;14.836;2022-10-16T19:09:36;14.60;99.90
31725;DHT22;18306;40.960;14.836;2022-10-16T19:12:16;14.50;99.90
31725;DHT22;18306;40.960;14.836;2022-10-16T19:14:47;14.60;99.90
31725;DHT22;18306;40.960;14.836;2022-10-16T19:17:28;14.50;99.90
31725;DHT22;18306;40.960;14.836;2022-10-16T19:19:58;14.50;99.90
31725;DHT22;18306;40.960;14.836;2022-10-16T19:22:28;14.50;99.90
31725;DHT22;18306;40.960;14.836;2022-10-16T19:25:22;14.50;99.90
31725;DHT22;18306;40.960;14.836;2022-10-16T19:28:29;14.40;99.90
31725;DHT22;18306;40.960;14.836;2022-10-16T19:31:05;14.30;99.90
31725;DHT22;18306;40.960;14.836;2022-10-16T19:33:33;14.30;99.90
31725;DHT22;18306;40.960;14.836;2022-10-16T19:36:13;14.30;99.90
31725;DHT22;18306;40.960;14.836;2022-10-16T19:38:46;14.20;99.90
31725;DHT22;18306;40.960;14.836;2022-10-16T19:41:18;14.00;99.90
31725;DHT22;18306;40.960;14.836;2022-10-16T19:43:47;14.10;99.90
31725;DHT22;18306;40.960;14.836;2022-10-16T19:46:21;14.00;99.90
31725;DHT22;18306;40.960;14.836;2022-10-16T19:48:55;14.00;99.90
31725;DHT22;18306;40.960;14.836;2022-10-16T19:51:27;14.10;99.90
31725;DHT22;18306;40.960;14.836;2022-10-16T19:54:06;14.00;99.90
31725;DHT22;18306;40.960;14.836;2022-10-16T19:56:35;14.00;99.90
31725;DHT22;18306;40.960;14.836;2022-10-16T19:59:04;13.90;99.90
31725;DHT22;18306;40.960;14.836;2022-10-16T20:01:33;13.80;99.90
31725;DHT22;18306;40.960;14.836;2022-10-16T20:04:01;13.80;99.90
31725;DHT22;18306;40.960;14.836;2022-10-16T20:06:30;13.80;99.90
31725;DHT22;18306;40.960;14.836;2022-10-16T20:08:58;13.80;99.90
31725;DHT22;18306;40.960;14.836;2022-10-16T20:11:29;13.80;99.90
31725;DHT22;18306;40.960;14.836;2022-10-16T20:14:04;13.70;99.90
31725;DHT22;18306;40.960;14.836;2022-10-16T20:16:39;13.70;99.90
31725;DHT22;18306;40.960;14.836;2022-10-16T20:19:09;13.70;99.90
31725;DHT22;18306;40.960;14.836;2022-10-16T20:21:38;13.70;99.90
31725;DHT22;18306;40.960;14.836;2022-10-16T20:24:14;13.60;99.90
31725;DHT22;18306;40.960;14.836;2022-10-16T20:26:50;13.70;99.90
31725;DHT22;18306;40.960;14.836;2022-10-16T20:29:18;13.70;99.90
31725;DHT22;18306;40.960;14.836;2022-10-16T20:31:50;13.70;99.90
31725;DHT22;18306;40.960;14.836;2022-10-16T20:34:24;13.60;99.90
31725;DHT22;18306;40.960;14.836;2022-10-16T20:36:55;13.50;99.90
31725;DHT22;18306;40.960;14.836;2022-10-16T20:39:22;13.50;99.90
31725;DHT22;18306;40.960;14.836;2022-10-16T20:41:50;13.50;99.90
31725;DHT22;18306;40.960;14.836;2022-10-16T20:44:22;13.40;99.90
31725;DHT22;18306;40.960;14.836;2022-10-16T20:46:53;13.40;99.90
31725;DHT22;18306;40.960;14.836;2022-10-16T20:49:22;13.40;99.90
31725;DHT22;18306;40.960;14.836;2022-10-16T20:51:52;13.30;99.90
31725;DHT22;18306;40.960;14.836;2022-10-16T20:54:22;13.30;99.90
31725;DHT22;18306;40.960;14.836;2022-10-16T20:56:55;13.40;99.90
31725;DHT22;18306;40.960;14.836;2022-10-16T20:59:28;13.30;99.90
31725;DHT22;18306;40.960;14.836;2022-10-16T21:02:03;13.30;99.90
31725;DHT22;18306;40.960;14.836;2022-10-16T21:04:34;13.30;99.90
31725;DHT22;18306;40.960;14.836;2022-10-16T21:07:04;13.30;99.90
31725;DHT22;18306;40.960;14.836;2022-10-16T21:09:33;13.30;99.90
31725;DHT22;18306;40.960;14.836;2022-10-16T21:12:04;13.20;99.90
31725;DHT22;18306;40.960;14.836;2022-10-16T21:14:34;13.20;99.90
31725;DHT22;18306;40.960;14.836;2022-10-16T21:17:02;13.10;99.90
31725;DHT22;18306;40.960;14.836;2022-10-16T21:19:31;13.10;99.90
31725;DHT22;18306;40.960;14.836;2022-10-16T21:22:01;13.10;99.90
31725;DHT22;18306;40.960;14.836;2022-10-16T21:24:31;13.10;99.90
31725;DHT22;18306;40.960;14.836;2022-10-16T21:27:03;13.10;99.90
31725;DHT22;18306;40.960;14.836;2022-10-16T21:29:32;13.10;99.90
31725;DHT22;18306;40.960;14.836;2022-10-16T21:32:03;12.90;99.90
31725;DHT22;18306;40.960;14.836;2022-10-16T21:34:34;12.90;99.90
31725;DHT22;18306;40.960;14.836;2022-10-16T21:37:01;12.90;99.90
